createdAt,value
2023-03-15T00:04:16.788Z,5.33
2023-03-15T00:09:38.566Z,5.23
2023-03-15T00:15:00.373Z,5.37
2023-03-15T00:20:22.095Z,5.02
2023-03-15T00:25:45.705Z,5.07
2023-03-15T00:31:09.476Z,5.25
2023-03-15T00:36:32.602Z,5.05
2023-03-15T00:41:56.867Z,4.91
2023-03-15T00:47:18.903Z,4.78
2023-03-15T00:52:41.981Z,4.97
2023-03-15T00:58:03.751Z,4.81
2023-03-15T01:03:25.635Z,5.01
2023-03-15T01:08:47.974Z,5.10
2023-03-15T01:14:10.020Z,5.10
2023-03-15T01:19:31.786Z,5.17
2023-03-15T01:24:53.559Z,5.16
2023-03-15T01:30:15.398Z,5.04
2023-03-15T01:35:37.166Z,4.51
2023-03-15T01:40:59.895Z,4.63
2023-03-15T01:46:23.670Z,4.82
2023-03-15T01:51:51.254Z,4.79
2023-03-15T01:57:22.772Z,4.81
2023-03-15T02:03:00.580Z,4.84
2023-03-15T02:08:27.104Z,4.89
2023-03-15T02:13:50.051Z,4.83
2023-03-15T02:19:33.938Z,4.59
2023-03-15T02:25:06.828Z,4.57
2023-03-15T02:30:29.095Z,4.59
2023-03-15T02:35:51.408Z,4.41
2023-03-15T02:41:17.477Z,4.26
2023-03-15T02:46:39.742Z,4.37
2023-03-15T02:52:01.491Z,4.39
2023-03-15T02:57:23.257Z,4.54
2023-03-15T03:02:47.298Z,4.74
2023-03-15T03:08:09.107Z,4.67
2023-03-15T03:13:30.901Z,4.55
2023-03-15T03:18:52.678Z,4.36
2023-03-15T03:24:16.165Z,4.26
2023-03-15T03:29:37.899Z,3.90
2023-03-15T03:35:00.122Z,3.89
2023-03-15T03:40:21.907Z,4.07
2023-03-15T03:45:43.716Z,3.95
2023-03-15T03:51:05.764Z,4.36
2023-03-15T03:56:28.131Z,4.33
2023-03-15T04:01:51.185Z,4.26
2023-03-15T04:07:13.016Z,4.27
2023-03-15T04:12:34.887Z,4.09
2023-03-15T04:17:56.804Z,4.15
2023-03-15T04:23:21.718Z,4.30
2023-03-15T04:28:43.478Z,4.32
2023-03-15T04:34:05.771Z,4.19
2023-03-15T04:39:27.601Z,4.41
2023-03-15T04:44:49.474Z,4.35
2023-03-15T04:50:11.627Z,4.28
2023-03-15T04:55:33.408Z,4.23
2023-03-15T05:00:55.206Z,4.27
2023-03-15T05:06:16.925Z,4.31
2023-03-15T05:11:38.611Z,4.16
2023-03-15T05:17:02.210Z,3.99
2023-03-15T05:22:25.960Z,4.17
2023-03-15T05:27:47.724Z,4.23
2023-03-15T05:33:09.524Z,4.20
2023-03-15T05:38:31.235Z,4.33
2023-03-15T05:43:53.002Z,4.05
2023-03-15T05:49:14.723Z,4.01
2023-03-15T05:54:36.821Z,4.08
2023-03-15T05:59:58.618Z,4.01
2023-03-15T06:05:20.329Z,4.19
2023-03-15T06:10:42.135Z,4.00
2023-03-15T06:16:04.377Z,4.18
2023-03-15T06:21:26.388Z,4.08
2023-03-15T06:26:48.108Z,4.22
2023-03-15T06:32:10.081Z,4.26
2023-03-15T06:37:35.430Z,4.11
2023-03-15T06:42:57.436Z,3.99
2023-03-15T06:48:19.207Z,3.83
2023-03-15T06:53:40.959Z,3.98
2023-03-15T06:59:03.530Z,4.11
2023-03-15T07:04:25.264Z,4.26
2023-03-15T07:09:47.034Z,4.46
2023-03-15T07:15:09.284Z,4.54
2023-03-15T07:20:31.600Z,4.54
2023-03-15T07:25:55.678Z,4.50
2023-03-15T07:31:17.730Z,4.73
2023-03-15T07:36:40.559Z,4.79
2023-03-15T07:42:02.395Z,4.71
2023-03-15T07:47:24.218Z,4.80
2023-03-15T07:52:45.989Z,4.83
2023-03-15T07:58:07.710Z,4.83
2023-03-15T08:03:29.518Z,4.92
2023-03-15T08:08:51.325Z,4.99
2023-03-15T08:14:13.022Z,5.15
2023-03-15T08:19:34.747Z,5.09
2023-03-15T08:24:57.599Z,5.04
2023-03-15T08:30:21.059Z,5.20
2023-03-15T08:35:42.935Z,5.24
2023-03-15T08:41:04.843Z,5.52
2023-03-15T08:46:27.646Z,5.67
2023-03-15T08:51:49.464Z,5.75
2023-03-15T08:57:12.719Z,5.86
2023-03-15T09:02:35.014Z,5.91
2023-03-15T09:07:56.831Z,6.11
2023-03-15T09:13:18.537Z,6.19
2023-03-15T09:18:44.647Z,6.10
2023-03-15T09:24:06.791Z,6.43
2023-03-15T09:29:28.607Z,6.49
2023-03-15T09:34:51.210Z,6.60
2023-03-15T09:40:22.110Z,6.76
2023-03-15T09:46:05.681Z,6.71
2023-03-15T09:51:57.177Z,6.89
2023-03-15T09:57:22.855Z,6.73
2023-03-15T10:03:01.397Z,6.77
2023-03-15T10:08:24.846Z,6.79
2023-03-15T10:14:13.107Z,6.96
2023-03-15T10:19:59.037Z,6.99
2023-03-15T10:25:29.497Z,7.20
2023-03-15T10:30:52.254Z,7.14
2023-03-15T10:36:22.068Z,7.16
2023-03-15T10:41:46.677Z,7.41
2023-03-15T10:47:24.038Z,7.37
2023-03-15T10:52:46.357Z,7.50
2023-03-15T10:58:31.327Z,7.42
2023-03-15T11:04:13.885Z,7.49
2023-03-15T11:10:06.970Z,7.47
2023-03-15T11:15:28.711Z,7.41
2023-03-15T11:20:54.553Z,7.36
2023-03-15T11:26:33.015Z,7.42
2023-03-15T11:31:56.163Z,7.47
2023-03-15T11:37:22.750Z,7.45
2023-03-15T11:42:51.783Z,7.55
2023-03-15T11:48:31.178Z,7.57
2023-03-15T11:54:11.432Z,7.69
2023-03-15T11:59:36.631Z,7.59
2023-03-15T12:05:01.773Z,7.59
2023-03-15T12:10:33.708Z,7.72
2023-03-15T12:15:56.264Z,7.61
2023-03-15T12:21:31.474Z,7.73
2023-03-15T12:27:03.757Z,7.62
2023-03-15T12:32:27.042Z,7.92
2023-03-15T12:37:52.084Z,7.95
2023-03-15T12:43:13.824Z,7.97
2023-03-15T12:48:35.662Z,8.01
2023-03-15T12:53:57.871Z,7.81
2023-03-15T12:59:19.536Z,7.87
2023-03-15T13:04:42.069Z,7.81
2023-03-15T13:10:35.438Z,7.50
2023-03-15T13:16:22.164Z,7.41
2023-03-15T13:22:04.960Z,7.36
2023-03-15T13:27:45.219Z,7.60
2023-03-15T13:33:22.791Z,7.45
2023-03-15T13:38:53.292Z,7.54
2023-03-15T13:44:23.662Z,7.33
2023-03-15T13:49:45.435Z,7.33
2023-03-15T13:55:07.975Z,7.04
2023-03-15T14:00:33.842Z,7.20
2023-03-15T14:05:58.102Z,7.20
2023-03-15T14:11:37.066Z,6.88
2023-03-15T14:17:05.837Z,6.67
2023-03-15T14:22:28.370Z,6.97
2023-03-15T14:27:50.543Z,7.45
2023-03-15T14:33:26.730Z,7.53
2023-03-15T14:38:57.894Z,7.69
2023-03-15T14:44:20.330Z,7.67
2023-03-15T14:49:42.097Z,7.41
2023-03-15T14:55:04.557Z,7.22
2023-03-15T15:00:26.896Z,6.94
2023-03-15T15:05:48.844Z,6.45
2023-03-15T15:11:11.072Z,6.24
2023-03-15T15:16:32.963Z,6.09
2023-03-15T15:21:54.909Z,6.03
2023-03-15T15:27:16.673Z,6.10
2023-03-15T15:32:38.446Z,5.87
2023-03-15T15:38:00.286Z,5.65
2023-03-15T15:43:22.049Z,5.21
2023-03-15T15:48:43.975Z,5.16
2023-03-15T15:54:06.118Z,5.36
2023-03-15T15:59:28.282Z,5.23
2023-03-15T16:04:50.496Z,5.39
2023-03-15T16:10:19.603Z,5.48
2023-03-15T16:15:41.414Z,5.55
2023-03-15T16:21:03.297Z,5.65
2023-03-15T16:26:25.248Z,5.64
2023-03-15T16:31:48.902Z,5.71
2023-03-15T16:37:13.651Z,5.57
2023-03-15T16:42:35.360Z,5.76
2023-03-15T16:47:57.138Z,5.86
2023-03-15T16:53:19.333Z,5.98
2023-03-15T16:58:42.635Z,5.93
2023-03-15T17:04:04.800Z,5.91
2023-03-15T17:09:28.624Z,5.93
2023-03-15T17:14:51.880Z,5.69
2023-03-15T17:20:14.221Z,5.63
2023-03-15T17:25:36.395Z,5.26
2023-03-15T17:31:14.220Z,5.01
2023-03-15T17:36:41.085Z,4.77
2023-03-15T17:42:02.889Z,5.06
2023-03-15T17:47:24.652Z,4.96
2023-03-15T17:52:54.669Z,4.83
2023-03-15T17:58:19.774Z,4.88
2023-03-15T18:03:43.677Z,4.95
2023-03-15T18:09:05.968Z,5.16
2023-03-15T18:14:27.820Z,5.20
2023-03-15T18:19:49.653Z,5.06
2023-03-15T18:25:21.525Z,4.72
2023-03-15T18:30:44.721Z,4.48
2023-03-15T18:36:07.206Z,4.47
2023-03-15T18:41:29.012Z,4.49
2023-03-15T18:46:50.731Z,4.37
2023-03-15T18:52:14.434Z,4.23
2023-03-15T18:57:36.999Z,4.27
2023-03-15T19:03:00.677Z,4.38
2023-03-15T19:08:23.575Z,4.41
2023-03-15T19:13:50.881Z,4.37
2023-03-15T19:19:12.653Z,4.53
2023-03-15T19:24:36.211Z,4.56
2023-03-15T19:29:58.277Z,4.67
2023-03-15T19:35:20.994Z,4.67
2023-03-15T19:40:42.812Z,4.28
2023-03-15T19:46:07.852Z,4.36
2023-03-15T19:51:30.565Z,4.18
2023-03-15T19:56:53.978Z,3.97
2023-03-15T20:02:15.784Z,4.19
2023-03-15T20:07:38.261Z,4.17
2023-03-15T20:13:00.053Z,4.10
2023-03-15T20:18:21.779Z,4.23
2023-03-15T20:23:43.907Z,4.28
2023-03-15T20:29:05.706Z,4.17
2023-03-15T20:34:27.712Z,3.96
2023-03-15T20:39:50.287Z,4.10
2023-03-15T20:45:13.714Z,3.86
2023-03-15T20:50:35.762Z,3.82
2023-03-15T20:55:57.594Z,3.71
2023-03-15T21:01:19.687Z,3.77
2023-03-15T21:06:41.552Z,3.64
2023-03-15T21:12:03.609Z,3.67
2023-03-15T21:17:25.381Z,3.86
2023-03-15T21:22:47.264Z,3.73
2023-03-15T21:28:09.029Z,3.86
2023-03-15T21:33:32.501Z,3.96
2023-03-15T21:38:54.223Z,3.87
2023-03-15T21:44:16.308Z,3.59
2023-03-15T21:49:38.823Z,3.67
2023-03-15T21:55:01.140Z,3.39
2023-03-15T22:00:24.082Z,3.37
2023-03-15T22:05:46.469Z,3.24
2023-03-15T22:11:08.272Z,3.33
2023-03-15T22:16:30.043Z,3.18
2023-03-15T22:21:52.041Z,3.32
2023-03-15T22:27:13.749Z,3.28
2023-03-15T22:32:35.516Z,3.23
2023-03-15T22:37:57.376Z,3.28
2023-03-15T22:43:19.834Z,3.32
2023-03-15T22:48:41.601Z,3.50
2023-03-15T22:54:03.386Z,3.22
2023-03-15T22:59:28.945Z,3.20
2023-03-15T23:04:51.838Z,3.29
2023-03-15T23:10:14.186Z,3.17
2023-03-15T23:15:35.983Z,2.96
2023-03-15T23:21:06.115Z,2.85
2023-03-15T23:26:27.926Z,2.76
2023-03-15T23:31:50.442Z,2.68
2023-03-15T23:37:15.040Z,2.55
2023-03-15T23:42:37.699Z,2.62
2023-03-15T23:47:59.518Z,2.76
2023-03-15T23:53:22.123Z,2.89
2023-03-15T23:58:43.828Z,3.12
